Time,TemperatureF,DewpointF,PressureIn,WindDirection,WindDirectionDegrees,WindSpeedMPH,WindSpeedGustMPH,Humidity,HourlyPrecipIn,Conditions,Clouds,dailyrainin,SoftwareType,DateUTC
2013-03-02 00:00:00,18.3,14.8,30.25,NW,316,1.0,1.0,86,0.00,,,0.00,Wunderground v.1.15,2013-03-02 06:00:00,
2013-03-02 00:05:00,18.3,14.8,30.26,NW,323,1.0,2.0,86,0.00,,,0.00,Wunderground v.1.15,2013-03-02 06:05:00,
2013-03-02 00:11:00,18.2,14.7,30.25,NW,314,1.0,2.0,86,0.00,,,0.00,Wunderground v.1.15,2013-03-02 06:11:00,
2013-03-02 00:17:00,18.0,14.5,30.26,NW,315,1.0,2.0,86,0.00,,,0.00,Wunderground v.1.15,2013-03-02 06:17:00,
2013-03-02 00:23:00,17.8,14.6,30.25,NW,321,1.0,2.0,87,0.00,,,0.00,Wunderground v.1.15,2013-03-02 06:23:00,
2013-03-02 00:29:00,17.6,14.4,30.25,NW,305,1.0,2.0,87,0.00,,,0.00,Wunderground v.1.15,2013-03-02 06:29:00,
2013-03-02 00:35:00,17.5,14.3,30.25,NW,326,2.0,3.0,87,0.00,,,0.00,Wunderground v.1.15,2013-03-02 06:35:00,
2013-03-02 00:41:00,17.3,14.1,30.25,NNW,337,2.0,2.0,87,0.00,,,0.00,Wunderground v.1.15,2013-03-02 06:41:00,
2013-03-02 00:47:00,17.1,13.9,30.25,NW,321,2.0,4.0,87,0.00,,,0.00,Wunderground v.1.15,2013-03-02 06:47:00,
2013-03-02 00:53:00,16.9,13.7,30.25,NW,316,2.0,2.0,87,0.00,,,0.00,Wunderground v.1.15,2013-03-02 06:53:00,
2013-03-02 00:59:00,16.6,13.4,30.26,NW,314,1.0,2.0,87,0.00,,,0.00,Wunderground v.1.15,2013-03-02 06:59:00,
2013-03-02 01:05:00,16.4,13.5,30.26,NW,316,1.0,2.0,88,0.00,,,0.00,Wunderground v.1.15,2013-03-02 07:05:00,
2013-03-02 01:11:00,16.4,13.5,30.26,WNW,298,1.0,3.0,88,0.00,,,0.00,Wunderground v.1.15,2013-03-02 07:11:00,
2013-03-02 01:17:00,16.3,13.4,30.26,NW,315,2.0,3.0,88,0.00,,,0.00,Wunderground v.1.15,2013-03-02 07:17:00,
2013-03-02 01:23:00,16.1,13.2,30.26,NW,305,2.0,2.0,88,0.00,,,0.00,Wunderground v.1.15,2013-03-02 07:23:00,
2013-03-02 01:29:00,16.0,13.1,30.26,NW,323,2.0,2.0,88,0.00,,,0.00,Wunderground v.1.15,2013-03-02 07:29:00,
2013-03-02 01:35:00,15.8,12.9,30.25,NNW,338,2.0,2.0,88,0.00,,,0.00,Wunderground v.1.15,2013-03-02 07:35:00,
2013-03-02 01:41:00,15.7,12.8,30.25,NW,320,2.0,3.0,88,0.00,,,0.00,Wunderground v.1.15,2013-03-02 07:41:00,
2013-03-02 01:47:00,15.5,12.6,30.25,NW,314,2.0,3.0,88,0.00,,,0.00,Wunderground v.1.15,2013-03-02 07:47:00,
2013-03-02 01:53:00,15.3,12.4,30.25,NW,326,2.0,3.0,88,0.00,,,0.00,Wunderground v.1.15,2013-03-02 07:53:00,
2013-03-02 01:59:00,15.1,12.2,30.25,NW,304,2.0,2.0,88,0.00,,,0.00,Wunderground v.1.15,2013-03-02 07:59:00,
2013-03-02 02:05:00,15.0,12.1,30.25,NW,322,2.0,3.0,88,0.00,,,0.00,Wunderground v.1.15,2013-03-02 08:05:00,
2013-03-02 02:11:00,14.7,11.8,30.25,NW,308,2.0,3.0,88,0.00,,,0.00,Wunderground v.1.15,2013-03-02 08:11:00,
2013-03-02 02:17:00,14.6,11.9,30.25,NW,315,2.0,3.0,89,0.00,,,0.00,Wunderground v.1.15,2013-03-02 08:17:00,
2013-03-02 02:23:00,14.5,11.9,30.25,NW,321,3.0,3.0,89,0.00,,,0.00,Wunderground v.1.15,2013-03-02 08:23:00,
2013-03-02 02:29:00,14.3,11.7,30.25,WNW,301,2.0,2.0,89,0.00,,,0.00,Wunderground v.1.15,2013-03-02 08:29:00,
2013-03-02 02:35:00,14.1,11.5,30.25,WNW,297,2.0,2.0,89,0.00,,,0.00,Wunderground v.1.15,2013-03-02 08:35:00,
2013-03-02 02:41:00,14.0,11.4,30.25,NW,308,2.0,2.0,89,0.00,,,0.00,Wunderground v.1.15,2013-03-02 08:41:00,
2013-03-02 02:47:00,13.8,11.2,30.24,NW,325,2.0,2.0,89,0.00,,,0.00,Wunderground v.1.15,2013-03-02 08:47:00,
2013-03-02 02:53:00,13.6,11.0,30.24,NW,309,2.0,3.0,89,0.00,,,0.00,Wunderground v.1.15,2013-03-02 08:53:00,
2013-03-02 02:59:00,13.5,10.9,30.24,NW,321,2.0,2.0,89,0.00,,,0.00,Wunderground v.1.15,2013-03-02 08:59:00,
2013-03-02 03:05:00,13.4,10.8,30.24,NW,308,2.0,3.0,89,0.00,,,0.00,Wunderground v.1.15,2013-03-02 09:05:00,
2013-03-02 03:11:00,13.2,10.6,30.24,NW,311,2.0,2.0,89,0.00,,,0.00,Wunderground v.1.15,2013-03-02 09:11:00,
2013-03-02 03:17:00,13.1,10.7,30.24,NW,315,2.0,3.0,90,0.00,,,0.00,Wunderground v.1.15,2013-03-02 09:17:00,
2013-03-02 03:23:00,12.9,10.5,30.24,NNW,328,2.0,2.0,90,0.00,,,0.00,Wunderground v.1.15,2013-03-02 09:23:00,
2013-03-02 03:29:00,12.8,10.4,30.24,NW,308,2.0,2.0,90,0.00,,,0.00,Wunderground v.1.15,2013-03-02 09:29:00,
2013-03-02 03:35:00,12.6,10.2,30.24,West,276,1.0,2.0,90,0.00,,,0.00,Wunderground v.1.15,2013-03-02 09:35:00,
2013-03-02 03:41:00,12.6,10.2,30.24,NW,317,1.0,2.0,90,0.00,,,0.00,Wunderground v.1.15,2013-03-02 09:41:00,
2013-03-02 03:47:00,12.5,10.1,30.24,NW,319,1.0,3.0,90,0.00,,,0.00,Wunderground v.1.15,2013-03-02 09:47:00,
2013-03-02 03:53:00,12.4,10.0,30.24,NW,325,1.0,2.0,90,0.00,,,0.00,Wunderground v.1.15,2013-03-02 09:53:00,
2013-03-02 03:59:00,12.4,10.0,30.24,WNW,289,2.0,2.0,90,0.00,,,0.00,Wunderground v.1.15,2013-03-02 09:59:00,
2013-03-02 04:05:00,12.3,9.9,30.24,NNW,330,2.0,2.0,90,0.00,,,0.00,Wunderground v.1.15,2013-03-02 10:05:00,
2013-03-02 04:11:00,12.2,9.8,30.25,NW,317,2.0,2.0,90,0.00,,,0.00,Wunderground v.1.15,2013-03-02 10:11:00,
2013-03-02 04:17:00,12.1,9.7,30.25,WNW,283,2.0,2.0,90,0.00,,,0.00,Wunderground v.1.15,2013-03-02 10:17:00,
2013-03-02 04:23:00,12.0,9.6,30.25,NW,311,2.0,3.0,90,0.00,,,0.00,Wunderground v.1.15,2013-03-02 10:23:00,
2013-03-02 04:29:00,11.9,9.5,30.25,NNW,334,2.0,2.0,90,0.00,,,0.00,Wunderground v.1.15,2013-03-02 10:29:00,
2013-03-02 04:35:00,11.8,9.2,30.25,NW,319,2.0,4.0,89,0.00,,,0.00,Wunderground v.1.15,2013-03-02 10:35:00,
2013-03-02 04:41:00,11.7,9.1,30.25,NW,314,2.0,2.0,89,0.00,,,0.00,Wunderground v.1.15,2013-03-02 10:41:00,
2013-03-02 04:47:00,11.5,9.1,30.25,NW,310,2.0,3.0,90,0.00,,,0.00,Wunderground v.1.15,2013-03-02 10:47:00,
2013-03-02 04:53:00,11.4,9.0,30.25,NNW,330,2.0,5.0,90,0.00,,,0.00,Wunderground v.1.15,2013-03-02 10:53:00,
2013-03-02 04:59:00,11.3,8.9,30.25,NW,309,2.0,3.0,90,0.00,,,0.00,Wunderground v.1.15,2013-03-02 10:59:00,
2013-03-02 05:05:00,11.2,8.6,30.25,NW,326,2.0,3.0,89,0.00,,,0.00,Wunderground v.1.15,2013-03-02 11:05:00,
2013-03-02 05:11:00,11.0,8.6,30.25,NNW,340,2.0,2.0,90,0.00,,,0.00,Wunderground v.1.15,2013-03-02 11:11:00,
2013-03-02 05:17:00,10.9,8.5,30.25,NW,314,2.0,2.0,90,0.00,,,0.00,Wunderground v.1.15,2013-03-02 11:17:00,
2013-03-02 05:23:00,10.7,8.3,30.25,NW,314,1.0,2.0,90,0.00,,,0.00,Wunderground v.1.15,2013-03-02 11:23:00,
2013-03-02 05:29:00,10.5,8.1,30.26,NW,312,1.0,2.0,90,0.00,,,0.00,Wunderground v.1.15,2013-03-02 11:29:00,
2013-03-02 05:35:00,10.4,8.0,30.26,NW,314,2.0,3.0,90,0.00,,,0.00,Wunderground v.1.15,2013-03-02 11:35:00,
2013-03-02 05:41:00,10.3,8.0,30.26,NW,321,2.0,2.0,90,0.00,,,0.00,Wunderground v.1.15,2013-03-02 11:41:00,
2013-03-02 05:47:00,10.1,7.8,30.26,NW,315,2.0,2.0,90,0.00,,,0.00,Wunderground v.1.15,2013-03-02 11:47:00,
2013-03-02 05:53:00,9.9,7.6,30.26,NW,321,1.0,2.0,90,0.00,,,0.00,Wunderground v.1.15,2013-03-02 11:53:00,
2013-03-02 05:59:00,9.8,7.5,30.26,NNW,347,1.0,1.0,90,0.00,,,0.00,Wunderground v.1.15,2013-03-02 11:59:00,
2013-03-02 06:05:00,9.7,7.4,30.26,WNW,295,1.0,2.0,90,0.00,,,0.00,Wunderground v.1.15,2013-03-02 12:05:00,
2013-03-02 06:11:00,9.5,7.2,30.27,NW,312,1.0,2.0,90,0.00,,,0.00,Wunderground v.1.15,2013-03-02 12:11:00,
2013-03-02 06:17:00,9.5,7.2,30.27,WSW,257,1.0,2.0,90,0.00,,,0.00,Wunderground v.1.15,2013-03-02 12:17:00,
2013-03-02 06:23:00,9.3,7.0,30.27,NW,314,1.0,2.0,90,0.00,,,0.00,Wunderground v.1.15,2013-03-02 12:23:00,
2013-03-02 06:29:00,9.3,7.0,30.26,NW,314,1.0,2.0,90,0.00,,,0.00,Wunderground v.1.15,2013-03-02 12:29:00,
2013-03-02 06:35:00,9.3,7.0,30.27,NNW,340,2.0,2.0,90,0.00,,,0.00,Wunderground v.1.15,2013-03-02 12:35:00,
2013-03-02 06:41:00,9.1,6.8,30.26,North,349,1.0,2.0,90,0.00,,,0.00,Wunderground v.1.15,2013-03-02 12:41:00,
2013-03-02 06:47:00,9.0,6.7,30.26,NW,323,1.0,2.0,90,0.00,,,0.00,Wunderground v.1.15,2013-03-02 12:47:00,
2013-03-02 06:53:00,9.0,6.7,30.26,North,356,1.0,2.0,90,0.00,,,0.00,Wunderground v.1.15,2013-03-02 12:53:00,
2013-03-02 06:59:00,8.9,6.6,30.26,NW,314,1.0,1.0,90,0.00,,,0.00,Wunderground v.1.15,2013-03-02 12:59:00,
2013-03-02 07:05:00,9.0,6.7,30.26,NNW,339,1.0,2.0,90,0.00,,,0.00,Wunderground v.1.15,2013-03-02 13:05:00,
2013-03-02 07:11:00,9.1,6.8,30.26,NW,316,1.0,2.0,90,0.00,,,0.00,Wunderground v.1.15,2013-03-02 13:11:00,
2013-03-02 07:17:00,9.2,6.9,30.26,NW,309,1.0,2.0,90,0.00,,,0.00,Wunderground v.1.15,2013-03-02 13:17:00,
2013-03-02 07:23:00,9.4,7.1,30.26,NW,320,1.0,2.0,90,0.00,,,0.00,Wunderground v.1.15,2013-03-02 13:23:00,
2013-03-02 07:29:00,9.6,7.0,30.26,NW,315,1.0,2.0,89,0.00,,,0.00,Wunderground v.1.15,2013-03-02 13:29:00,
2013-03-02 07:35:00,9.9,7.3,30.26,NW,315,2.0,2.0,89,0.00,,,0.00,Wunderground v.1.15,2013-03-02 13:35:00,
2013-03-02 07:41:00,10.3,7.7,30.27,NW,312,2.0,2.0,89,0.00,,,0.00,Wunderground v.1.15,2013-03-02 13:41:00,
2013-03-02 07:47:00,10.7,7.8,30.27,NW,323,2.0,3.0,88,0.00,,,0.00,Wunderground v.1.15,2013-03-02 13:47:00,
2013-03-02 07:53:00,11.1,8.0,30.28,NW,315,2.0,2.0,87,0.00,,,0.00,Wunderground v.1.15,2013-03-02 13:53:00,
2013-03-02 07:59:00,11.5,8.4,30.27,NW,307,2.0,2.0,87,0.00,,,0.00,Wunderground v.1.15,2013-03-02 13:59:00,
2013-03-02 08:05:00,11.8,8.4,30.27,NW,317,2.0,2.0,86,0.00,,,0.00,Wunderground v.1.15,2013-03-02 14:05:00,
2013-03-02 08:11:00,12.2,8.8,30.28,NW,321,2.0,3.0,86,0.00,,,0.00,Wunderground v.1.15,2013-03-02 14:11:00,
2013-03-02 08:17:00,12.4,8.7,30.28,North,9,2.0,3.0,85,0.00,,,0.00,Wunderground v.1.15,2013-03-02 14:17:00,
2013-03-02 08:23:00,12.6,8.9,30.28,NW,309,3.0,4.0,85,0.00,,,0.00,Wunderground v.1.15,2013-03-02 14:23:00,
2013-03-02 08:29:00,13.0,9.1,30.28,NNW,335,2.0,4.0,84,0.00,,,0.00,Wunderground v.1.15,2013-03-02 14:29:00,
2013-03-02 08:35:00,13.2,9.3,30.28,NW,315,2.0,4.0,84,0.00,,,0.00,Wunderground v.1.15,2013-03-02 14:35:00,
2013-03-02 08:41:00,13.6,9.7,30.28,NNE,19,2.0,2.0,84,0.00,,,0.00,Wunderground v.1.15,2013-03-02 14:41:00,
2013-03-02 08:47:00,14.1,9.9,30.28,NW,316,2.0,3.0,83,0.00,,,0.00,Wunderground v.1.15,2013-03-02 14:47:00,
2013-03-02 08:53:00,14.4,10.2,30.28,NW,317,2.0,4.0,83,0.00,,,0.00,Wunderground v.1.15,2013-03-02 14:53:00,
2013-03-02 08:59:00,14.9,10.4,30.28,NNW,328,2.0,2.0,82,0.00,,,0.00,Wunderground v.1.15,2013-03-02 14:59:00,
2013-03-02 09:05:00,15.3,10.5,30.29,NNE,19,2.0,4.0,81,0.00,,,0.00,Wunderground v.1.15,2013-03-02 15:05:00,
2013-03-02 09:11:00,15.5,10.7,30.28,NE,37,2.0,2.0,81,0.00,,,0.00,Wunderground v.1.15,2013-03-02 15:11:00,
2013-03-02 09:17:00,15.8,10.7,30.28,NW,304,2.0,2.0,80,0.00,,,0.00,Wunderground v.1.15,2013-03-02 15:17:00,
2013-03-02 09:23:00,15.9,10.5,30.28,NNE,29,2.0,4.0,79,0.00,,,0.00,Wunderground v.1.15,2013-03-02 15:23:00,
2013-03-02 09:29:00,16.1,10.7,30.28,NNW,343,3.0,4.0,79,0.00,,,0.00,Wunderground v.1.15,2013-03-02 15:29:00,
2013-03-02 09:35:00,16.3,10.9,30.29,NW,312,3.0,4.0,79,0.00,,,0.00,Wunderground v.1.15,2013-03-02 15:35:00,
2013-03-02 09:41:00,16.5,11.1,30.28,NNW,340,3.0,4.0,79,0.00,,,0.00,Wunderground v.1.15,2013-03-02 15:41:00,
2013-03-02 09:47:00,16.7,11.0,30.28,NW,321,2.0,4.0,78,0.00,,,0.00,Wunderground v.1.15,2013-03-02 15:47:00,
2013-03-02 09:53:00,17.1,11.7,30.28,North,9,2.0,4.0,79,0.00,,,0.00,Wunderground v.1.15,2013-03-02 15:53:00,
2013-03-02 09:59:00,17.4,11.4,30.28,NNW,335,2.0,2.0,77,0.00,,,0.00,Wunderground v.1.15,2013-03-02 15:59:00,
2013-03-02 10:05:00,17.7,11.7,30.28,NW,305,3.0,4.0,77,0.00,,,0.00,Wunderground v.1.15,2013-03-02 16:05:00,
2013-03-02 10:11:00,18.0,12.0,30.28,NW,318,3.0,4.0,77,0.00,,,0.00,Wunderground v.1.15,2013-03-02 16:11:00,
2013-03-02 10:17:00,18.2,11.9,30.28,NNW,348,3.0,5.0,76,0.00,,,0.00,Wunderground v.1.15,2013-03-02 16:17:00,
2013-03-02 10:23:00,18.6,12.3,30.28,NE,34,2.0,3.0,76,0.00,,,0.00,Wunderground v.1.15,2013-03-02 16:23:00,
2013-03-02 10:29:00,19.0,12.7,30.28,NW,315,2.0,2.0,76,0.00,,,0.00,Wunderground v.1.15,2013-03-02 16:29:00,
2013-03-02 10:35:00,19.2,12.6,30.28,NNW,335,3.0,3.0,75,0.00,,,0.00,Wunderground v.1.15,2013-03-02 16:35:00,
2013-03-02 10:41:00,19.7,13.1,30.28,NNW,338,2.0,3.0,75,0.00,,,0.00,Wunderground v.1.15,2013-03-02 16:41:00,
2013-03-02 10:47:00,20.2,13.2,30.28,WNW,297,2.0,3.0,74,0.00,,,0.00,Wunderground v.1.15,2013-03-02 16:47:00,
2013-03-02 10:53:00,20.7,13.4,30.27,NNE,16,2.0,3.0,73,0.00,,,0.00,Wunderground v.1.15,2013-03-02 16:53:00,
2013-03-02 10:59:00,21.1,13.8,30.27,NE,41,2.0,3.0,73,0.00,,,0.00,Wunderground v.1.15,2013-03-02 16:59:00,
2013-03-02 11:05:00,21.5,13.5,30.27,NNW,338,1.0,3.0,71,0.00,,,0.00,Wunderground v.1.15,2013-03-02 17:05:00,
2013-03-02 11:11:00,21.7,13.7,30.27,NNW,341,2.0,3.0,71,0.00,,,0.00,Wunderground v.1.15,2013-03-02 17:11:00,
2013-03-02 11:17:00,21.9,13.6,30.27,NNE,29,3.0,5.0,70,0.00,,,0.00,Wunderground v.1.15,2013-03-02 17:17:00,
2013-03-02 11:23:00,22.0,13.4,30.27,NE,43,3.0,5.0,69,0.00,,,0.00,Wunderground v.1.15,2013-03-02 17:23:00,
2013-03-02 11:29:00,22.1,13.5,30.27,North,1,3.0,4.0,69,0.00,,,0.00,Wunderground v.1.15,2013-03-02 17:29:00,
2013-03-02 11:35:00,22.1,12.8,30.27,NE,44,3.0,6.0,67,0.00,,,0.00,Wunderground v.1.15,2013-03-02 17:35:00,
2013-03-02 11:41:00,22.6,14.0,30.26,NNE,12,3.0,3.0,69,0.00,,,0.00,Wunderground v.1.15,2013-03-02 17:41:00,
2013-03-02 11:47:00,23.4,14.0,30.26,ENE,59,2.0,3.0,67,0.00,,,0.00,Wunderground v.1.15,2013-03-02 17:47:00,
2013-03-02 11:53:00,23.8,13.7,30.26,NW,319,1.0,2.0,65,0.00,,,0.00,Wunderground v.1.15,2013-03-02 17:53:00,
2013-03-02 11:59:00,24.0,13.2,30.25,West,260,2.0,2.0,63,0.00,,,0.00,Wunderground v.1.15,2013-03-02 17:59:00,
2013-03-02 12:05:00,24.6,14.5,30.25,NW,315,2.0,6.0,65,0.00,,,0.00,Wunderground v.1.15,2013-03-02 18:05:00,
2013-03-02 12:11:00,24.7,13.9,30.25,WNW,288,2.0,3.0,63,0.00,,,0.00,Wunderground v.1.15,2013-03-02 18:11:00,
2013-03-02 12:17:00,25.1,13.9,30.25,NW,309,2.0,3.0,62,0.00,,,0.00,Wunderground v.1.15,2013-03-02 18:17:00,
2013-03-02 12:23:00,25.5,14.3,30.25,NW,314,2.0,3.0,62,0.00,,,0.00,Wunderground v.1.15,2013-03-02 18:23:00,
2013-03-02 12:29:00,25.7,13.7,30.24,WNW,287,1.0,3.0,60,0.00,,,0.00,Wunderground v.1.15,2013-03-02 18:29:00,
2013-03-02 12:35:00,26.0,14.0,30.25,NNE,22,2.0,3.0,60,0.00,,,0.00,Wunderground v.1.15,2013-03-02 18:35:00,
2013-03-02 12:41:00,26.4,13.6,30.25,NNW,329,2.0,4.0,58,0.00,,,0.00,Wunderground v.1.15,2013-03-02 18:41:00,
2013-03-02 12:47:00,26.2,12.6,30.25,NNW,344,3.0,5.0,56,0.00,,,0.00,Wunderground v.1.15,2013-03-02 18:47:00,
2013-03-02 12:53:00,26.6,13.4,30.24,WNW,297,2.0,4.0,57,0.00,,,0.00,Wunderground v.1.15,2013-03-02 18:53:00,
2013-03-02 12:59:00,27.1,13.9,30.24,NE,40,1.0,3.0,57,0.00,,,0.00,Wunderground v.1.15,2013-03-02 18:59:00,
2013-03-02 13:05:00,27.2,14.4,30.24,NW,323,2.0,4.0,58,0.00,,,0.00,Wunderground v.1.15,2013-03-02 19:05:00,
2013-03-02 13:11:00,27.3,15.6,30.23,NW,311,2.0,2.0,61,0.00,,,0.00,Wunderground v.1.15,2013-03-02 19:11:00,
2013-03-02 13:17:00,27.6,15.9,30.23,NW,318,1.0,2.0,61,0.00,,,0.00,Wunderground v.1.15,2013-03-02 19:17:00,
2013-03-02 13:23:00,27.0,15.3,30.23,WNW,301,2.0,3.0,61,0.00,,,0.00,Wunderground v.1.15,2013-03-02 19:23:00,
2013-03-02 13:29:00,26.9,15.6,30.23,WSW,248,2.0,2.0,62,0.00,,,0.00,Wunderground v.1.15,2013-03-02 19:29:00,
2013-03-02 13:35:00,26.8,15.5,30.23,WSW,239,3.0,7.0,62,0.00,,,0.00,Wunderground v.1.15,2013-03-02 19:35:00,
2013-03-02 13:41:00,27.1,16.2,30.23,West,267,2.0,3.0,63,0.00,,,0.00,Wunderground v.1.15,2013-03-02 19:41:00,
2013-03-02 13:47:00,27.2,15.1,30.22,SW,232,2.0,3.0,60,0.00,,,0.00,Wunderground v.1.15,2013-03-02 19:47:00,
2013-03-02 13:53:00,27.4,15.7,30.22,NNW,345,2.0,3.0,61,0.00,,,0.00,Wunderground v.1.15,2013-03-02 19:53:00,
2013-03-02 13:59:00,27.5,15.8,30.22,WNW,287,2.0,2.0,61,0.00,,,0.00,Wunderground v.1.15,2013-03-02 19:59:00,
2013-03-02 14:05:00,27.7,16.7,30.22,West,277,2.0,3.0,63,0.00,,,0.00,Wunderground v.1.15,2013-03-02 20:05:00,
2013-03-02 14:11:00,27.6,15.9,30.22,NW,304,2.0,3.0,61,0.00,,,0.00,Wunderground v.1.15,2013-03-02 20:11:00,
2013-03-02 14:17:00,27.5,16.2,30.22,NW,316,3.0,3.0,62,0.00,,,0.00,Wunderground v.1.15,2013-03-02 20:17:00,
2013-03-02 14:23:00,27.7,16.7,30.21,NNW,337,2.0,3.0,63,0.00,,,0.00,Wunderground v.1.15,2013-03-02 20:23:00,
2013-03-02 14:29:00,28.3,16.9,30.21,NNW,336,2.0,3.0,62,0.00,,,0.00,Wunderground v.1.15,2013-03-02 20:29:00,
2013-03-02 14:35:00,28.5,17.1,30.21,West,280,2.0,3.0,62,0.00,,,0.00,Wunderground v.1.15,2013-03-02 20:35:00,
2013-03-02 14:41:00,28.5,17.1,30.21,WSW,250,1.0,2.0,62,0.00,,,0.00,Wunderground v.1.15,2013-03-02 20:41:00,
2013-03-02 14:47:00,28.4,17.4,30.21,NW,323,2.0,3.0,63,0.00,,,0.00,Wunderground v.1.15,2013-03-02 20:47:00,
2013-03-02 14:53:00,28.5,17.5,30.21,NNW,344,2.0,4.0,63,0.00,,,0.00,Wunderground v.1.15,2013-03-02 20:53:00,
2013-03-02 14:59:00,28.4,16.7,30.21,NNW,336,2.0,2.0,61,0.00,,,0.00,Wunderground v.1.15,2013-03-02 20:59:00,
2013-03-02 15:05:00,27.9,16.2,30.21,West,263,2.0,4.0,61,0.00,,,0.00,Wunderground v.1.15,2013-03-02 21:05:00,
2013-03-02 15:11:00,28.0,16.3,30.21,NW,323,2.0,3.0,61,0.00,,,0.00,Wunderground v.1.15,2013-03-02 21:11:00,
2013-03-02 15:17:00,28.2,17.6,30.21,NW,307,2.0,3.0,64,0.00,,,0.00,Wunderground v.1.15,2013-03-02 21:17:00,
2013-03-02 15:23:00,28.2,17.6,30.21,WSW,251,3.0,4.0,64,0.00,,,0.00,Wunderground v.1.15,2013-03-02 21:23:00,
2013-03-02 15:29:00,28.4,18.1,30.21,NW,305,2.0,4.0,65,0.00,,,0.00,Wunderground v.1.15,2013-03-02 21:29:00,
2013-03-02 15:35:00,27.9,17.6,30.21,NW,307,2.0,4.0,65,0.00,,,0.00,Wunderground v.1.15,2013-03-02 21:35:00,
2013-03-02 15:41:00,28.2,17.6,30.21,West,269,2.0,4.0,64,0.00,,,0.00,Wunderground v.1.15,2013-03-02 21:41:00,
2013-03-02 15:47:00,27.9,17.3,30.21,WNW,293,3.0,5.0,64,0.00,,,0.00,Wunderground v.1.15,2013-03-02 21:47:00,
2013-03-02 15:53:00,27.7,17.8,30.21,West,278,3.0,4.0,66,0.00,,,0.00,Wunderground v.1.15,2013-03-02 21:53:00,
2013-03-02 15:59:00,28.0,17.7,30.21,NW,307,2.0,2.0,65,0.00,,,0.00,Wunderground v.1.15,2013-03-02 21:59:00,
2013-03-02 16:05:00,28.0,17.7,30.21,SW,233,3.0,5.0,65,0.00,,,0.00,Wunderground v.1.15,2013-03-02 22:05:00,
2013-03-02 16:11:00,28.0,17.4,30.21,WSW,242,3.0,3.0,64,0.00,,,0.00,Wunderground v.1.15,2013-03-02 22:11:00,
2013-03-02 16:17:00,28.0,17.7,30.21,WSW,248,3.0,4.0,65,0.00,,,0.00,Wunderground v.1.15,2013-03-02 22:17:00,
2013-03-02 16:23:00,28.1,18.2,30.21,WSW,239,2.0,3.0,66,0.00,,,0.00,Wunderground v.1.15,2013-03-02 22:23:00,
2013-03-02 16:29:00,28.1,17.8,30.21,WNW,302,2.0,2.0,65,0.00,,,0.00,Wunderground v.1.15,2013-03-02 22:29:00,
2013-03-02 16:35:00,28.1,17.8,30.20,WSW,253,2.0,3.0,65,0.00,,,0.00,Wunderground v.1.15,2013-03-02 22:35:00,
2013-03-02 16:41:00,28.3,18.0,30.20,NW,304,1.0,2.0,65,0.00,,,0.00,Wunderground v.1.15,2013-03-02 22:41:00,
2013-03-02 16:47:00,28.1,17.8,30.20,West,264,1.0,3.0,65,0.00,,,0.00,Wunderground v.1.15,2013-03-02 22:47:00,
2013-03-02 16:53:00,27.8,17.6,30.20,WNW,290,2.0,2.0,65,0.00,,,0.00,Wunderground v.1.15,2013-03-02 22:53:00,
2013-03-02 16:59:00,27.8,17.6,30.20,NW,312,1.0,2.0,65,0.00,,,0.00,Wunderground v.1.15,2013-03-02 22:59:00,
2013-03-02 17:05:00,27.8,17.6,30.20,West,265,1.0,2.0,65,0.00,,,0.00,Wunderground v.1.15,2013-03-02 23:05:00,
2013-03-02 17:11:00,28.1,17.8,30.20,WNW,283,1.0,2.0,65,0.00,,,0.00,Wunderground v.1.15,2013-03-02 23:11:00,
2013-03-02 17:17:00,28.2,18.3,30.20,SSW,211,0.0,2.0,66,0.00,,,0.00,Wunderground v.1.15,2013-03-02 23:17:00,
2013-03-02 17:23:00,28.2,17.9,30.20,West,274,0.0,2.0,65,0.00,,,0.00,Wunderground v.1.15,2013-03-02 23:23:00,
2013-03-02 17:29:00,28.0,17.7,30.20,WNW,302,0.0,2.0,65,0.00,,,0.00,Wunderground v.1.15,2013-03-02 23:29:00,
2013-03-02 17:35:00,27.6,17.7,30.20,North,349,0.0,2.0,66,0.00,,,0.00,Wunderground v.1.15,2013-03-02 23:35:00,
2013-03-02 17:41:00,27.3,17.4,30.20,West,279,0.0,2.0,66,0.00,,,0.00,Wunderground v.1.15,2013-03-02 23:41:00,
2013-03-02 17:47:00,26.5,17.0,30.20,NW,316,0.0,2.0,67,0.00,,,0.00,Wunderground v.1.15,2013-03-02 23:47:00,
2013-03-02 17:53:00,25.6,16.8,30.20,WSW,243,0.0,2.0,69,0.00,,,0.00,Wunderground v.1.15,2013-03-02 23:53:00,
2013-03-02 17:59:00,24.0,16.0,30.20,WSW,247,1.0,2.0,71,0.00,,,0.00,Wunderground v.1.15,2013-03-02 23:59:00,
2013-03-02 18:05:00,23.2,15.8,30.20,WSW,257,1.0,2.0,73,0.00,,,0.00,Wunderground v.1.15,2013-03-03 00:05:00,
2013-03-02 18:11:00,22.7,15.7,30.20,West,259,1.0,2.0,74,0.00,,,0.00,Wunderground v.1.15,2013-03-03 00:11:00,
2013-03-02 18:17:00,22.3,15.6,30.20,WSW,250,1.0,2.0,75,0.00,,,0.00,Wunderground v.1.15,2013-03-03 00:17:00,
2013-03-02 18:23:00,22.0,15.6,30.20,SW,231,0.0,2.0,76,0.00,,,0.00,Wunderground v.1.15,2013-03-03 00:23:00,
2013-03-02 18:29:00,21.7,15.6,30.20,WSW,248,0.0,2.0,77,0.00,,,0.00,Wunderground v.1.15,2013-03-03 00:29:00,
2013-03-02 18:35:00,21.5,15.4,30.20,WSW,256,0.0,2.0,77,0.00,,,0.00,Wunderground v.1.15,2013-03-03 00:35:00,
2013-03-02 18:41:00,21.2,15.4,30.20,West,260,0.0,2.0,78,0.00,,,0.00,Wunderground v.1.15,2013-03-03 00:41:00,
2013-03-02 18:47:00,20.9,15.1,30.20,WSW,250,0.0,2.0,78,0.00,,,0.00,Wunderground v.1.15,2013-03-03 00:47:00,
2013-03-02 18:53:00,20.4,14.9,30.20,WSW,250,0.0,2.0,79,0.00,,,0.00,Wunderground v.1.15,2013-03-03 00:53:00,
2013-03-02 18:59:00,20.0,14.5,30.20,WSW,252,0.0,2.0,79,0.00,,,0.00,Wunderground v.1.15,2013-03-03 00:59:00,
2013-03-02 19:05:00,19.7,14.5,30.20,WSW,252,0.0,2.0,80,0.00,,,0.00,Wunderground v.1.15,2013-03-03 01:05:00,
2013-03-02 19:11:00,19.4,14.5,30.20,WSW,252,0.0,2.0,81,0.00,,,0.00,Wunderground v.1.15,2013-03-03 01:11:00,
2013-03-02 19:17:00,19.3,14.7,30.20,WSW,250,0.0,2.0,82,0.00,,,0.00,Wunderground v.1.15,2013-03-03 01:17:00,
2013-03-02 19:23:00,19.2,14.6,30.20,WSW,250,0.0,2.0,82,0.00,,,0.00,Wunderground v.1.15,2013-03-03 01:23:00,
2013-03-02 19:29:00,19.0,14.4,30.19,West,274,0.0,2.0,82,0.00,,,0.00,Wunderground v.1.15,2013-03-03 01:29:00,
2013-03-02 19:35:00,18.9,14.3,30.19,WSW,248,0.0,2.0,82,0.00,,,0.00,Wunderground v.1.15,2013-03-03 01:35:00,
2013-03-02 19:41:00,18.5,13.9,30.19,WSW,248,0.0,2.0,82,0.00,,,0.00,Wunderground v.1.15,2013-03-03 01:41:00,
2013-03-02 19:47:00,18.3,14.0,30.19,WSW,253,0.0,2.0,83,0.00,,,0.00,Wunderground v.1.15,2013-03-03 01:47:00,
2013-03-02 19:53:00,17.8,13.2,30.19,WSW,253,0.0,2.0,82,0.00,,,0.00,Wunderground v.1.15,2013-03-03 01:53:00,
2013-03-02 19:59:00,17.2,12.9,30.19,WSW,256,0.0,2.0,83,0.00,,,0.00,Wunderground v.1.15,2013-03-03 01:59:00,
2013-03-02 20:05:00,16.7,12.7,30.20,WSW,256,0.0,2.0,84,0.00,,,0.00,Wunderground v.1.15,2013-03-03 02:05:00,
2013-03-02 20:11:00,16.4,12.7,30.20,WSW,256,0.0,2.0,85,0.00,,,0.00,Wunderground v.1.15,2013-03-03 02:11:00,
2013-03-02 20:17:00,16.0,12.3,30.19,WSW,256,0.0,2.0,85,0.00,,,0.00,Wunderground v.1.15,2013-03-03 02:17:00,
2013-03-02 20:23:00,15.8,12.6,30.19,WSW,256,0.0,2.0,87,0.00,,,0.00,Wunderground v.1.15,2013-03-03 02:23:00,
2013-03-02 20:29:00,15.5,12.6,30.18,WSW,256,0.0,2.0,88,0.00,,,0.00,Wunderground v.1.15,2013-03-03 02:29:00,
2013-03-02 20:35:00,15.4,12.5,30.19,WSW,256,0.0,2.0,88,0.00,,,0.00,Wunderground v.1.15,2013-03-03 02:35:00,
2013-03-02 20:41:00,15.2,12.3,30.19,WSW,256,0.0,2.0,88,0.00,,,0.00,Wunderground v.1.15,2013-03-03 02:41:00,
2013-03-02 20:47:00,14.8,12.1,30.19,WSW,256,0.0,2.0,89,0.00,,,0.00,Wunderground v.1.15,2013-03-03 02:47:00,
2013-03-02 20:53:00,14.6,11.9,30.19,WSW,256,0.0,2.0,89,0.00,,,0.00,Wunderground v.1.15,2013-03-03 02:53:00,
2013-03-02 20:59:00,14.3,11.7,30.20,WSW,256,0.0,2.0,89,0.00,,,0.00,Wunderground v.1.15,2013-03-03 02:59:00,
2013-03-02 21:05:00,14.1,11.7,30.20,WSW,256,0.0,2.0,90,0.00,,,0.00,Wunderground v.1.15,2013-03-03 03:05:00,
2013-03-02 21:11:00,14.0,11.4,30.20,WSW,256,0.0,2.0,89,0.00,,,0.00,Wunderground v.1.15,2013-03-03 03:11:00,
2013-03-02 21:17:00,13.5,10.9,30.20,WSW,256,0.0,2.0,89,0.00,,,0.00,Wunderground v.1.15,2013-03-03 03:17:00,
2013-03-02 21:23:00,13.1,10.7,30.20,WSW,256,0.0,2.0,90,0.00,,,0.00,Wunderground v.1.15,2013-03-03 03:23:00,
2013-03-02 21:29:00,13.3,11.4,30.20,WSW,256,0.0,2.0,92,0.00,,,0.00,Wunderground v.1.15,2013-03-03 03:29:00,
2013-03-02 21:35:00,13.3,11.2,30.20,WSW,256,0.0,2.0,91,0.00,,,0.00,Wunderground v.1.15,2013-03-03 03:35:00,
2013-03-02 21:41:00,13.1,11.0,30.20,WSW,256,0.0,2.0,91,0.00,,,0.00,Wunderground v.1.15,2013-03-03 03:41:00,
2013-03-02 21:47:00,13.0,10.9,30.20,WSW,256,0.0,2.0,91,0.00,,,0.00,Wunderground v.1.15,2013-03-03 03:47:00,
2013-03-02 21:53:00,12.9,10.8,30.20,WSW,256,0.0,2.0,91,0.00,,,0.00,Wunderground v.1.15,2013-03-03 03:53:00,
2013-03-02 21:59:00,12.8,10.7,30.20,WSW,256,0.0,2.0,91,0.00,,,0.00,Wunderground v.1.15,2013-03-03 03:59:00,
2013-03-02 22:05:00,12.7,10.6,30.20,WSW,256,0.0,2.0,91,0.00,,,0.00,Wunderground v.1.15,2013-03-03 04:05:00,
2013-03-02 22:11:00,12.5,10.4,30.20,WSW,256,0.0,2.0,91,0.00,,,0.00,Wunderground v.1.15,2013-03-03 04:11:00,
2013-03-02 22:17:00,12.4,10.3,30.20,WSW,256,0.0,2.0,91,0.00,,,0.00,Wunderground v.1.15,2013-03-03 04:17:00,
2013-03-02 22:23:00,12.3,9.9,30.19,WSW,256,0.0,2.0,90,0.00,,,0.00,Wunderground v.1.15,2013-03-03 04:23:00,
2013-03-02 22:29:00,11.9,9.5,30.19,WSW,256,0.0,2.0,90,0.00,,,0.00,Wunderground v.1.15,2013-03-03 04:29:00,
2013-03-02 22:35:00,11.7,9.6,30.19,WSW,256,0.0,2.0,91,0.00,,,0.00,Wunderground v.1.15,2013-03-03 04:35:00,
2013-03-02 22:41:00,11.6,9.5,30.19,WSW,256,0.0,2.0,91,0.00,,,0.00,Wunderground v.1.15,2013-03-03 04:41:00,
2013-03-02 22:47:00,11.4,9.3,30.19,WSW,256,0.0,2.0,91,0.00,,,0.00,Wunderground v.1.15,2013-03-03 04:47:00,
2013-03-02 22:53:00,11.3,9.2,30.18,WSW,256,0.0,2.0,91,0.00,,,0.00,Wunderground v.1.15,2013-03-03 04:53:00,
2013-03-02 22:59:00,11.2,9.1,30.18,WSW,256,0.0,2.0,91,0.00,,,0.00,Wunderground v.1.15,2013-03-03 04:59:00,
2013-03-02 23:01:00,11.2,9.1,30.18,WSW,256,0.0,2.0,91,0.00,,,0.00,Wunderground v.1.15,2013-03-03 05:01:00,
2013-03-02 23:03:00,11.2,9.1,30.18,WSW,256,0.0,2.0,91,0.00,,,0.00,Wunderground v.1.15,2013-03-03 05:03:00,
2013-03-02 23:09:00,11.1,9.0,30.18,WSW,256,0.0,2.0,91,0.00,,,0.00,Wunderground v.1.15,2013-03-03 05:09:00,
2013-03-02 23:11:00,11.1,9.0,30.18,WSW,256,0.0,2.0,91,0.00,,,0.00,Wunderground v.1.15,2013-03-03 05:11:00,
2013-03-02 23:17:00,11.1,9.0,30.18,WSW,256,0.0,2.0,91,0.00,,,0.00,Wunderground v.1.15,2013-03-03 05:17:00,
2013-03-02 23:23:00,11.1,9.0,30.18,WSW,256,0.0,2.0,91,0.00,,,0.00,Wunderground v.1.15,2013-03-03 05:23:00,
2013-03-02 23:29:00,11.5,9.4,30.17,WSW,256,0.0,2.0,91,0.00,,,0.00,Wunderground v.1.15,2013-03-03 05:29:00,
2013-03-02 23:35:00,11.7,9.6,30.17,WSW,256,0.0,2.0,91,0.00,,,0.00,Wunderground v.1.15,2013-03-03 05:35:00,
2013-03-02 23:41:00,12.1,10.2,30.17,WSW,257,0.0,2.0,92,0.00,,,0.00,Wunderground v.1.15,2013-03-03 05:41:00,
2013-03-02 23:47:00,12.3,9.9,30.17,WSW,257,0.0,2.0,90,0.00,,,0.00,Wunderground v.1.15,2013-03-03 05:47:00,
2013-03-02 23:53:00,12.7,10.6,30.17,SSW,205,0.0,2.0,91,0.00,,,0.00,Wunderground v.1.15,2013-03-03 05:53:00,
2013-03-02 23:59:00,12.9,10.8,30.16,SSW,205,0.0,0.0,91,0.00,,,0.00,Wunderground v.1.15,2013-03-03 05:59:00,